Airfield :
LOGIN :

Register | Disclaimer

   EN    FR    IT 

 










Legend :    VFR   Marginal VFR   IFR   Intensive IFR   Very Intensive IFR
Visi :
Ceiling :
>= 8 km
>= 3000ft
5 to 8 km
1000 to 3000 ft
1500m to 5 km
500 to 1000 ft
800 to 1500m
200 to 500 ft
< 800m
< 200 ft
Symbols :   Thunderstorms  Fog  Heavy snow  Heavy precipitations  Wind > 20 kt
SIGMETs :     Misc.  Thunderstorms  Icing  Turbulence  Mountain Waves  Volcanic Ashes






- Airport Elevation : 242 ft
- IATA code : DUB


EIDW - Dublin

CURRENT METAR :
  • 210930Z 22006KT 150V310 9999 FEW015 SCT022 BKN026 15/11 Q1010 NOSIG

EXPIRED METARs :
  • 210900Z 22006KT 170V260 9999 FEW013 SCT022 BKN034 14/11 Q1010 NOSIG
  • 210830Z 23006KT 180V280 9999 FEW012 BKN048 14/11 Q1010 NOSIG
  • 210800Z 23005KT 180V260 9999 FEW011 BKN050 13/11 Q1010 NOSIG
  • 210730Z 22005KT 190V270 9999 FEW014 SCT050 BKN130 13/11 Q1010 NOSIG
  • 210700Z 23005KT 160V280 9999 FEW010 BKN060 12/11 Q1010 NOSIG
  • 210630Z 22005KT 190V260 9999 FEW010 BKN050 12/10 Q1010 NOSIG
  • 210600Z 23005KT 190V280 9999 FEW014 BKN050 11/10 Q1010 NOSIG
  • 210530Z 23006KT 160V280 9999 FEW014 BKN050 11/10 Q1009 NOSIG
  • 210500Z 24007KT 200V280 9999 FEW014 BKN050 11/09 Q1009 NOSIG
  • 210430Z 24007KT 210V290 9999 FEW014 BKN050 11/09 Q1009 NOSIG

TAF TAF EIDW
Valid from the 21 at 06:00 until the 22 at 06:00 UTC


210500Z 2106/2206 24008KT 9999 FEW014 BKN035
BECMG 2116/2118 20006KT
BECMG 2119/2121 14006KT
TEMPO 2121/2203 -RA BKN012
PROB30
TEMPO 2121/2124 4000 -RADZ BKN007
BECMG 2122/2124 20006KT
BECMG 2200/2202 23009KT
PROB30
TEMPO 2203/2206 BKN012



MET'MAP, your aeronautical weather chart ! - Copyright ORBIFLY December 2007 - Disclaimer

ORBIFLY MET'MAP TEAM :

Programming & Development : Alexandra Zaïnal
Original concept : Baudouin d'Aumeries
Technical & hardware support : Manuel Goepfert
Assistance : Marc-Olivier Méhu




SOURCES & CREDITS :

   NOAA